createdAt,value
2019-01-27T00:02:21.819Z,36.50
2019-01-27T00:04:50.522Z,38.40
2019-01-27T00:07:19.669Z,36.40
2019-01-27T00:09:52.357Z,36.27
2019-01-27T00:12:24.752Z,36.20
2019-01-27T00:14:57.614Z,43.53
2019-01-27T00:17:29.253Z,33.90
2019-01-27T00:19:59.600Z,42.07
2019-01-27T00:22:32.928Z,50.57
2019-01-27T00:25:05.346Z,45.83
2019-01-27T00:27:39.136Z,49.57
2019-01-27T00:30:17.189Z,52.00
2019-01-27T00:32:50.795Z,51.73
2019-01-27T00:35:22.760Z,55.83
2019-01-27T00:37:53.489Z,57.57
2019-01-27T00:40:28.719Z,54.87
2019-01-27T00:43:01.547Z,67.03
2019-01-27T00:48:34.916Z,68.30
2019-01-27T00:51:10.989Z,70.97
2019-01-27T00:53:54.057Z,77.57
2019-01-27T00:56:32.503Z,82.93
2019-01-27T00:59:06.898Z,70.00
2019-01-27T01:01:37.560Z,75.43
2019-01-27T01:04:12.600Z,85.20
2019-01-27T01:06:46.187Z,79.97
2019-01-27T01:09:17.852Z,83.33
2019-01-27T01:11:48.779Z,82.10
2019-01-27T01:14:23.831Z,84.70
2019-01-27T01:16:54.606Z,84.00
2019-01-27T01:19:30.525Z,89.50
2019-01-27T01:24:59.867Z,89.80
2019-01-27T01:27:34.685Z,94.90
2019-01-27T01:30:09.092Z,92.17
2019-01-27T01:32:38.092Z,91.30
2019-01-27T01:35:13.869Z,86.73
2019-01-27T01:37:47.796Z,96.63
2019-01-27T01:40:20.552Z,101.53
2019-01-27T01:42:54.460Z,98.07
2019-01-27T01:45:32.083Z,110.17
2019-01-27T01:48:06.647Z,100.53
2019-01-27T01:50:39.224Z,96.53
2019-01-27T01:53:14.078Z,105.23
2019-01-27T01:55:45.726Z,113.37
2019-01-27T01:58:18.623Z,110.67
2019-01-27T02:00:53.210Z,119.50
2019-01-27T02:03:31.908Z,110.60
2019-01-27T02:06:05.175Z,115.30
2019-01-27T02:08:39.996Z,116.40
2019-01-27T02:11:10.727Z,122.03
2019-01-27T02:13:45.263Z,130.17
2019-01-27T02:16:18.656Z,123.23
2019-01-27T02:18:49.830Z,117.10
2019-01-27T02:21:22.920Z,123.27
2019-01-27T02:23:55.769Z,139.50
2019-01-27T02:26:44.141Z,125.67
2019-01-27T02:29:16.277Z,142.77
2019-01-27T02:31:49.828Z,123.70
2019-01-27T02:34:24.907Z,133.00
2019-01-27T02:36:56.163Z,128.37
2019-01-27T02:39:26.103Z,139.20
2019-01-27T02:41:57.128Z,138.73
2019-01-27T02:44:30.847Z,136.23
2019-01-27T02:50:05.461Z,140.67
2019-01-27T02:52:39.083Z,131.63
2019-01-27T02:55:16.876Z,124.37
2019-01-27T02:57:55.828Z,123.43
2019-01-27T03:00:32.097Z,124.00
2019-01-27T03:03:11.496Z,126.07
2019-01-27T03:06:00.339Z,119.77
2019-01-27T03:08:39.588Z,117.57
2019-01-27T03:11:20.921Z,115.33
2019-01-27T03:13:57.590Z,113.07
2019-01-27T03:16:32.844Z,121.57
2019-01-27T03:19:09.904Z,113.33
2019-01-27T03:21:49.865Z,106.63
2019-01-27T03:24:21.673Z,99.40
2019-01-27T03:26:54.635Z,94.97
2019-01-27T03:29:28.583Z,105.47
2019-01-27T03:32:02.661Z,98.40
2019-01-27T03:34:41.001Z,85.13
2019-01-27T03:37:16.979Z,91.97
2019-01-27T03:39:52.180Z,96.27
2019-01-27T03:42:23.975Z,85.07
2019-01-27T03:47:51.251Z,87.73
2019-01-27T03:50:25.273Z,92.23
2019-01-27T03:55:54.322Z,70.33
2019-01-27T03:58:28.102Z,84.20
2019-01-27T04:01:01.794Z,75.10
2019-01-27T04:03:42.913Z,84.10
2019-01-27T04:06:18.382Z,73.20
2019-01-27T04:08:53.196Z,77.57
2019-01-27T04:11:23.675Z,70.00
2019-01-27T04:13:56.947Z,66.70
2019-01-27T04:16:30.085Z,68.57
2019-01-27T04:18:59.523Z,73.73
2019-01-27T04:21:31.829Z,70.63
2019-01-27T04:24:02.486Z,72.70
2019-01-27T04:26:31.759Z,67.43
2019-01-27T04:29:01.792Z,70.83
2019-01-27T04:31:38.960Z,77.53
2019-01-27T04:34:10.245Z,68.93
2019-01-27T04:36:43.462Z,74.70
2019-01-27T04:39:15.034Z,65.03
2019-01-27T04:41:45.392Z,64.97
2019-01-27T04:44:15.491Z,67.00
2019-01-27T04:46:45.268Z,64.60
2019-01-27T04:49:14.054Z,60.07
2019-01-27T04:51:44.422Z,54.47
2019-01-27T04:54:16.238Z,57.93
2019-01-27T04:56:45.429Z,59.67
2019-01-27T04:59:15.896Z,63.93
2019-01-27T05:01:45.057Z,57.67
2019-01-27T05:04:26.969Z,61.30
2019-01-27T05:06:56.047Z,61.87
2019-01-27T05:09:27.433Z,56.00
2019-01-27T05:11:56.232Z,56.53
2019-01-27T05:14:25.285Z,61.83
2019-01-27T05:16:57.451Z,57.63
2019-01-27T05:19:26.428Z,53.57
2019-01-27T05:21:58.591Z,49.77
2019-01-27T05:24:27.512Z,50.60
2019-01-27T05:26:56.789Z,59.33
2019-01-27T05:29:26.093Z,49.83
2019-01-27T05:31:59.142Z,58.10
2019-01-27T05:34:28.080Z,53.90
2019-01-27T05:36:58.882Z,52.10
2019-01-27T05:39:28.389Z,46.70
2019-01-27T05:41:57.314Z,52.20
2019-01-27T05:44:26.347Z,49.77
2019-01-27T05:46:57.408Z,49.50
2019-01-27T05:49:26.786Z,52.30
2019-01-27T05:51:56.058Z,48.93
2019-01-27T05:54:24.848Z,48.97
2019-01-27T05:56:56.680Z,44.13
2019-01-27T05:59:24.980Z,46.83
2019-01-27T06:01:55.455Z,51.37
2019-01-27T06:04:24.126Z,54.63
2019-01-27T06:06:54.041Z,49.43
2019-01-27T06:09:23.199Z,49.60
2019-01-27T06:11:52.092Z,53.60
2019-01-27T06:14:20.726Z,41.40
2019-01-27T06:16:49.392Z,46.13
2019-01-27T06:19:18.198Z,47.90
2019-01-27T06:21:48.060Z,44.83
2019-01-27T06:24:16.753Z,43.37
2019-01-27T06:26:45.538Z,44.67
2019-01-27T06:29:14.563Z,45.33
2019-01-27T06:31:43.233Z,43.87
2019-01-27T06:34:17.157Z,43.47
2019-01-27T06:36:45.583Z,41.83
2019-01-27T06:39:14.579Z,41.63
2019-01-27T06:41:45.052Z,45.03
2019-01-27T06:44:13.796Z,40.50
2019-01-27T06:46:44.308Z,38.50
2019-01-27T06:49:13.104Z,43.63
2019-01-27T06:51:45.355Z,43.37
2019-01-27T06:54:14.429Z,41.00
2019-01-27T06:56:43.176Z,42.17
2019-01-27T06:59:31.871Z,34.63
2019-01-27T07:02:16.417Z,38.07
2019-01-27T07:05:04.182Z,39.60
2019-01-27T07:08:10.014Z,37.13
2019-01-27T07:10:56.936Z,39.63
2019-01-27T07:13:47.509Z,38.27
2019-01-27T07:16:38.020Z,39.33
2019-01-27T07:19:27.099Z,35.97
2019-01-27T07:22:15.402Z,31.07
2019-01-27T07:24:59.189Z,35.37
2019-01-27T07:27:38.562Z,29.10
2019-01-27T07:30:31.208Z,36.10
2019-01-27T07:33:25.452Z,39.07
2019-01-27T07:36:05.756Z,36.63
2019-01-27T07:39:01.018Z,40.07
2019-01-27T07:41:40.278Z,39.63
2019-01-27T07:44:26.980Z,38.03
2019-01-27T07:47:07.342Z,34.67
2019-01-27T07:49:50.883Z,38.53
2019-01-27T07:52:31.731Z,35.17
2019-01-27T07:55:22.911Z,38.50
2019-01-27T07:58:15.950Z,36.07
2019-01-27T08:00:55.939Z,35.13
2019-01-27T08:03:55.795Z,34.20
2019-01-27T08:06:42.313Z,39.33
2019-01-27T08:09:30.144Z,36.23
2019-01-27T08:12:22.332Z,36.43
2019-01-27T08:15:12.479Z,31.57
2019-01-27T08:18:00.549Z,35.00
2019-01-27T08:20:50.614Z,35.13
2019-01-27T08:23:33.824Z,32.97
2019-01-27T08:26:19.764Z,38.20
2019-01-27T08:29:14.361Z,29.97
2019-01-27T08:32:02.499Z,30.00
2019-01-27T08:34:54.210Z,34.20
2019-01-27T08:37:55.844Z,31.00
2019-01-27T08:40:54.964Z,31.13
2019-01-27T08:43:43.814Z,32.13
2019-01-27T08:46:21.786Z,28.23
2019-01-27T08:48:52.608Z,29.20
2019-01-27T08:51:22.068Z,29.87
2019-01-27T08:53:52.144Z,29.30
2019-01-27T08:56:30.009Z,30.20
2019-01-27T08:58:58.893Z,30.13
2019-01-27T09:01:45.089Z,30.27
2019-01-27T09:04:24.484Z,27.33
2019-01-27T09:07:12.418Z,29.87
2019-01-27T09:09:58.975Z,32.30
2019-01-27T09:12:54.757Z,28.60
2019-01-27T09:15:51.887Z,33.70
2019-01-27T09:18:48.047Z,28.03
2019-01-27T09:21:34.714Z,28.73
2019-01-27T09:24:21.086Z,30.77
2019-01-27T09:27:07.954Z,30.50
2019-01-27T09:29:42.857Z,27.10
2019-01-27T09:32:33.565Z,29.77
2019-01-27T09:35:20.728Z,28.90
2019-01-27T09:38:00.715Z,28.17
2019-01-27T09:40:54.321Z,29.57
2019-01-27T09:43:44.891Z,28.30
2019-01-27T09:46:31.252Z,27.27
2019-01-27T09:49:06.025Z,26.70
2019-01-27T09:51:40.107Z,23.73
2019-01-27T09:54:28.001Z,23.60
2019-01-27T09:57:07.335Z,27.23
2019-01-27T09:59:47.151Z,24.80
2019-01-27T10:02:34.639Z,27.63
2019-01-27T10:05:14.344Z,25.97
2019-01-27T10:08:01.322Z,24.67
2019-01-27T10:10:43.034Z,24.93
2019-01-27T10:13:24.487Z,23.60
2019-01-27T10:16:00.782Z,26.73
2019-01-27T10:18:36.515Z,22.90
2019-01-27T10:21:14.953Z,27.47
2019-01-27T10:23:50.964Z,25.70
2019-01-27T10:26:37.058Z,24.47
2019-01-27T10:29:30.226Z,25.97
2019-01-27T10:32:05.703Z,23.67
2019-01-27T10:34:50.743Z,23.67
2019-01-27T10:37:37.354Z,23.30
2019-01-27T10:40:29.792Z,20.43
2019-01-27T10:43:29.783Z,22.40
2019-01-27T10:46:23.089Z,20.60
2019-01-27T10:49:19.946Z,22.23
2019-01-27T10:52:11.347Z,24.77
2019-01-27T10:54:49.658Z,22.47
2019-01-27T10:57:24.550Z,21.03
2019-01-27T11:00:11.428Z,23.57
2019-01-27T11:02:57.825Z,23.57
2019-01-27T11:05:54.887Z,23.57
2019-01-27T11:08:45.451Z,21.10
2019-01-27T11:11:52.026Z,21.03
2019-01-27T11:14:49.931Z,22.80
2019-01-27T11:17:43.860Z,19.83
2019-01-27T11:20:39.738Z,21.53
2019-01-27T11:23:25.478Z,18.90
2019-01-27T11:26:08.825Z,19.63
2019-01-27T11:28:43.945Z,18.23
2019-01-27T11:31:30.512Z,19.23
2019-01-27T11:34:15.416Z,17.17
2019-01-27T11:37:02.785Z,16.40
2019-01-27T11:39:41.555Z,15.47
2019-01-27T11:42:47.495Z,14.93
2019-01-27T11:45:44.606Z,14.57
2019-01-27T11:48:35.183Z,13.93
2019-01-27T11:51:27.311Z,14.27
2019-01-27T11:53:58.438Z,13.03
2019-01-27T11:56:27.415Z,11.90
2019-01-27T11:58:56.645Z,14.10
2019-01-27T12:01:26.811Z,13.20
2019-01-27T12:03:56.030Z,12.47
2019-01-27T12:06:24.759Z,11.27
2019-01-27T12:08:55.501Z,15.13
2019-01-27T12:11:24.389Z,12.37
2019-01-27T12:13:53.173Z,12.47
2019-01-27T12:16:22.366Z,11.87
2019-01-27T12:18:51.520Z,12.73
2019-01-27T12:21:20.681Z,11.77
2019-01-27T12:23:49.615Z,11.27
2019-01-27T12:26:18.322Z,10.60
2019-01-27T12:28:47.800Z,11.43
2019-01-27T12:31:16.781Z,11.97
2019-01-27T12:33:45.749Z,11.70
2019-01-27T12:36:14.501Z,12.80
2019-01-27T12:38:43.947Z,12.17
2019-01-27T12:41:12.832Z,12.40
2019-01-27T12:43:41.784Z,12.03
2019-01-27T12:46:10.673Z,12.03
2019-01-27T12:48:39.566Z,12.33
2019-01-27T12:51:08.438Z,13.70
2019-01-27T12:53:37.110Z,13.97
2019-01-27T12:56:06.363Z,11.97
2019-01-27T12:58:35.253Z,11.90
2019-01-27T13:01:08.303Z,11.30
2019-01-27T13:03:37.275Z,11.27
2019-01-27T13:06:06.087Z,10.73
2019-01-27T13:08:35.036Z,10.03
2019-01-27T13:11:05.886Z,10.07
2019-01-27T13:13:34.823Z,9.80
2019-01-27T13:16:04.016Z,11.17
2019-01-27T13:18:33.013Z,9.83
2019-01-27T13:21:02.159Z,8.57
2019-01-27T13:23:31.063Z,9.50
2019-01-27T13:25:59.945Z,8.47
2019-01-27T13:28:28.846Z,7.30
2019-01-27T13:30:57.611Z,8.03
2019-01-27T13:33:26.514Z,7.93
2019-01-27T13:35:55.491Z,8.50
2019-01-27T13:38:24.476Z,8.20
2019-01-27T13:40:53.184Z,8.10
2019-01-27T13:43:22.103Z,7.40
2019-01-27T13:45:51.068Z,7.27
2019-01-27T13:48:20.097Z,7.97
2019-01-27T13:50:48.728Z,8.03
2019-01-27T13:53:17.364Z,7.57
2019-01-27T13:55:45.988Z,7.50
2019-01-27T13:58:14.806Z,6.30
2019-01-27T14:00:43.540Z,7.13
2019-01-27T14:03:13.232Z,7.90
2019-01-27T14:05:41.965Z,7.23
2019-01-27T14:08:10.674Z,7.13
2019-01-27T14:10:39.661Z,6.97
2019-01-27T14:13:08.561Z,6.87
2019-01-27T14:15:37.929Z,6.70
2019-01-27T14:18:07.024Z,6.60
2019-01-27T14:20:35.777Z,6.43
2019-01-27T14:23:04.683Z,6.07
2019-01-27T14:25:33.478Z,7.37
2019-01-27T14:28:02.227Z,6.60
2019-01-27T14:30:33.534Z,7.17
2019-01-27T14:33:25.610Z,6.20
2019-01-27T14:35:54.578Z,6.53
2019-01-27T14:38:26.625Z,6.63
2019-01-27T14:40:57.728Z,6.63
2019-01-27T14:43:26.805Z,6.77
2019-01-27T14:45:55.863Z,6.03
2019-01-27T14:48:24.895Z,6.00
2019-01-27T14:50:53.847Z,6.00
2019-01-27T14:53:24.386Z,5.70
2019-01-27T14:55:53.450Z,6.37
2019-01-27T14:58:22.609Z,5.60
2019-01-27T15:00:51.491Z,5.47
2019-01-27T15:03:20.595Z,5.60
2019-01-27T15:05:49.293Z,5.47
2019-01-27T15:08:18.482Z,5.37
2019-01-27T15:10:48.090Z,6.97
2019-01-27T15:13:17.272Z,5.67
2019-01-27T15:15:46.231Z,6.63
2019-01-27T15:18:15.145Z,5.63
2019-01-27T15:20:47.480Z,6.20
2019-01-27T15:23:16.468Z,7.67
2019-01-27T15:25:45.618Z,5.83
2019-01-27T15:28:14.351Z,6.90
2019-01-27T15:30:43.345Z,6.80
2019-01-27T15:33:12.226Z,7.80
2019-01-27T15:35:41.164Z,7.27
2019-01-27T15:38:10.127Z,7.50
2019-01-27T15:40:38.741Z,6.50
2019-01-27T15:43:07.482Z,7.20
2019-01-27T15:45:37.405Z,7.07
2019-01-27T15:48:06.965Z,6.83
2019-01-27T15:50:36.051Z,7.40
2019-01-27T15:53:06.044Z,7.07
2019-01-27T15:55:35.904Z,7.30
2019-01-27T15:58:04.872Z,9.47
2019-01-27T16:00:33.911Z,8.13
2019-01-27T16:03:03.083Z,8.33
2019-01-27T16:05:32.011Z,7.90
2019-01-27T16:08:00.888Z,8.37
2019-01-27T16:10:29.709Z,8.53
2019-01-27T16:12:58.772Z,10.67
2019-01-27T16:15:29.524Z,8.00
2019-01-27T16:17:58.638Z,13.23
2019-01-27T16:20:28.913Z,8.97
2019-01-27T16:23:06.124Z,9.57
2019-01-27T16:25:35.019Z,10.53
2019-01-27T16:28:03.754Z,8.87
2019-01-27T16:31:03.470Z,16.33
2019-01-27T16:34:21.130Z,11.93
2019-01-27T16:36:49.955Z,9.53
2019-01-27T16:39:18.915Z,8.73
2019-01-27T16:41:47.600Z,9.50
2019-01-27T16:44:16.595Z,9.70
2019-01-27T16:46:45.308Z,9.57
2019-01-27T16:49:13.933Z,10.00
2019-01-27T16:51:48.991Z,9.77
2019-01-27T17:01:30.151Z,9.90
2019-01-27T17:04:02.471Z,8.83
2019-01-27T17:07:34.547Z,10.07
2019-01-27T17:23:28.244Z,11.40
2019-01-27T17:29:15.284Z,11.17
2019-01-27T17:31:53.373Z,11.13
2019-01-27T17:34:46.768Z,9.67
2019-01-27T17:40:29.943Z,8.40
2019-01-27T17:43:10.061Z,11.97
2019-01-27T17:46:00.701Z,9.40
2019-01-27T17:48:37.947Z,9.90
2019-01-27T17:51:11.017Z,10.50
2019-01-27T17:54:05.622Z,10.67
2019-01-27T17:56:40.805Z,9.60
2019-01-27T17:59:42.658Z,8.70
2019-01-27T18:02:36.918Z,10.07
2019-01-27T18:05:49.956Z,8.93
2019-01-27T18:08:35.432Z,13.13
2019-01-27T18:11:12.962Z,8.23
2019-01-27T18:13:52.196Z,9.87
2019-01-27T18:16:22.267Z,10.60
2019-01-27T18:18:51.397Z,9.53
2019-01-27T18:21:20.446Z,10.77
2019-01-27T18:23:51.852Z,10.90
2019-01-27T18:26:22.551Z,9.27
2019-01-27T18:28:53.041Z,10.47
2019-01-27T18:31:29.133Z,11.63
2019-01-27T18:34:01.962Z,10.80
2019-01-27T18:36:45.446Z,9.77
2019-01-27T18:39:23.158Z,11.63
2019-01-27T18:41:53.706Z,10.40
2019-01-27T18:44:23.429Z,11.33
2019-01-27T18:46:52.943Z,14.20
2019-01-27T18:49:21.890Z,11.30
2019-01-27T18:51:50.782Z,11.03
2019-01-27T18:54:50.409Z,13.10
2019-01-27T18:57:29.310Z,13.18
2019-01-27T19:00:21.349Z,10.83
2019-01-27T19:03:06.890Z,12.77
2019-01-27T19:05:57.106Z,16.77
2019-01-27T19:09:09.155Z,12.33
2019-01-27T19:12:01.880Z,13.33
2019-01-27T19:14:49.854Z,15.40
2019-01-27T19:17:42.744Z,15.87
2019-01-27T19:20:27.427Z,13.73
2019-01-27T19:23:12.738Z,13.80
2019-01-27T19:26:00.397Z,13.87
2019-01-27T19:28:48.104Z,14.90
2019-01-27T19:31:34.264Z,12.47
2019-01-27T19:34:19.351Z,13.17
2019-01-27T19:37:11.695Z,12.47
2019-01-27T19:40:00.205Z,13.77
2019-01-27T19:42:48.639Z,12.07
2019-01-27T19:45:30.056Z,13.63
2019-01-27T19:48:19.422Z,11.00
2019-01-27T19:51:05.914Z,11.30
2019-01-27T19:53:48.798Z,11.40
2019-01-27T19:56:35.766Z,11.73
2019-01-27T20:00:04.840Z,13.53
2019-01-27T20:02:43.485Z,13.40
2019-01-27T20:05:36.365Z,12.67
2019-01-27T20:08:45.301Z,15.20
2019-01-27T20:11:45.645Z,12.97
2019-01-27T20:14:53.351Z,14.37
2019-01-27T20:18:07.947Z,13.07
2019-01-27T20:21:03.714Z,13.37
2019-01-27T20:23:53.727Z,14.77
2019-01-27T20:26:48.943Z,15.43
2019-01-27T20:29:41.757Z,13.60
2019-01-27T20:32:45.334Z,12.83
2019-01-27T20:35:41.987Z,13.93
2019-01-27T20:38:39.018Z,13.97
2019-01-27T20:41:39.978Z,13.63
2019-01-27T20:44:26.026Z,13.53
2019-01-27T20:47:30.581Z,13.67
2019-01-27T20:50:20.902Z,11.73
2019-01-27T20:53:47.134Z,13.37
2019-01-27T20:56:50.922Z,11.70
2019-01-27T20:59:52.999Z,12.10
2019-01-27T21:02:55.028Z,15.10
2019-01-27T21:05:42.125Z,14.53
2019-01-27T21:08:34.603Z,13.33
2019-01-27T21:11:41.172Z,13.07
2019-01-27T21:18:18.590Z,11.77
2019-01-27T21:20:53.471Z,12.37
2019-01-27T21:23:18.686Z,12.67
2019-01-27T21:25:47.966Z,12.83
2019-01-27T21:28:21.881Z,11.93
2019-01-27T21:31:05.636Z,14.60
2019-01-27T21:33:52.553Z,12.00
2019-01-27T21:36:24.350Z,11.93
2019-01-27T21:38:53.881Z,11.40
2019-01-27T21:41:36.763Z,12.03
2019-01-27T21:44:10.741Z,12.40
2019-01-27T21:46:49.431Z,11.90
2019-01-27T21:49:29.818Z,11.87
2019-01-27T21:52:23.698Z,13.63
2019-01-27T21:54:59.296Z,13.60
2019-01-27T21:57:39.741Z,11.47
2019-01-27T22:00:23.041Z,13.60
2019-01-27T22:03:00.533Z,12.80
2019-01-27T22:06:00.452Z,12.83
2019-01-27T22:08:37.556Z,14.30
2019-01-27T22:11:14.610Z,13.07
2019-01-27T22:13:53.498Z,13.00
2019-01-27T22:16:27.510Z,12.00
2019-01-27T22:19:22.414Z,13.83
2019-01-27T22:22:08.239Z,14.20
2019-01-27T22:25:03.455Z,13.17
2019-01-27T22:27:51.342Z,13.33
2019-01-27T22:30:39.469Z,15.33
2019-01-27T22:33:08.769Z,12.43
2019-01-27T22:35:48.982Z,13.17
2019-01-27T22:38:30.801Z,15.33
2019-01-27T22:41:15.813Z,14.83
2019-01-27T22:43:58.371Z,14.20
2019-01-27T22:46:29.752Z,15.33
2019-01-27T22:49:04.077Z,18.70
2019-01-27T22:51:39.982Z,15.67
2019-01-27T22:54:24.733Z,17.10
2019-01-27T22:57:01.946Z,16.83
2019-01-27T22:59:38.865Z,17.03
2019-01-27T23:02:20.444Z,18.03
2019-01-27T23:05:04.792Z,16.87
2019-01-27T23:07:39.913Z,19.23
2019-01-27T23:10:19.386Z,18.50
2019-01-27T23:12:51.947Z,17.90
2019-01-27T23:15:27.027Z,19.23
2019-01-27T23:19:35.214Z,22.13
2019-01-27T23:20:38.764Z,24.33
2019-01-27T23:23:16.875Z,19.13
2019-01-27T23:26:06.059Z,22.70
2019-01-27T23:28:44.112Z,22.07
2019-01-27T23:31:18.584Z,24.07
2019-01-27T23:33:58.786Z,22.10
2019-01-27T23:36:33.033Z,21.83
2019-01-27T23:39:08.897Z,21.40
2019-01-27T23:41:39.653Z,24.53
2019-01-27T23:44:20.969Z,22.57
2019-01-27T23:47:02.059Z,23.93
2019-01-27T23:49:32.252Z,23.33
2019-01-27T23:52:03.425Z,26.07
2019-01-27T23:54:36.899Z,25.73
2019-01-27T23:57:13.134Z,24.20
2019-01-27T23:59:44.491Z,24.43
